Time;durP1;ratioP1;P1;durP2;ratioP2;P2;SDS_P1;SDS_P2;PMS_P1;PMS_P2;Temp;Humidity;BMP_temperature;BMP_pressure;BME280_temperature;BME280_humidity;BME280_pressure;Samples;Min_cycle;Max_cycle;Signal;HPM_P1;HPM_P2
2021/09/27 00:01:45;;;;;;;9.77;5.47;;;22.70;74.90;;;;;;5196086;28;22534;-54
2021/09/27 00:04:17;;;;;;;9.70;5.68;;;22.70;75.00;;;;;;5203857;28;20071;-45
2021/09/27 00:06:49;;;;;;;8.40;5.10;;;22.70;74.90;;;;;;5168831;28;20501;-48
2021/09/27 00:09:23;;;;;;;8.05;5.57;;;22.70;74.90;;;;;;5206241;28;20060;-45
2021/09/27 00:11:55;;;;;;;6.40;5.13;;;22.70;75.00;;;;;;5204540;28;20497;-47
2021/09/27 00:14:28;;;;;;;9.63;5.35;;;22.70;75.00;;;;;;5204357;28;20052;-49
2021/09/27 00:17:00;;;;;;;8.88;5.80;;;22.70;75.00;;;;;;5209099;28;20060;-52
2021/09/27 00:19:34;;;;;;;9.02;5.57;;;22.70;75.00;;;;;;5206301;28;20045;-50
2021/09/27 00:22:07;;;;;;;9.02;5.80;;;22.70;75.00;;;;;;5199464;28;20988;-49
2021/09/27 00:24:39;;;;;;;8.70;5.15;;;22.70;75.00;;;;;;5202259;28;20040;-45
2021/09/27 00:27:12;;;;;;;7.40;5.85;;;22.70;75.00;;;;;;5209395;28;20049;-47
2021/09/27 00:29:44;;;;;;;6.32;5.00;;;22.70;75.00;;;;;;5212764;28;20053;-46
2021/09/27 00:32:17;;;;;;;8.13;5.18;;;22.70;75.00;;;;;;5211285;28;20060;-46
2021/09/27 00:34:49;;;;;;;8.45;5.72;;;22.70;75.10;;;;;;5191869;28;20052;-47
2021/09/27 00:37:22;;;;;;;7.45;5.47;;;22.70;75.10;;;;;;5205867;28;20543;-48
2021/09/27 00:39:54;;;;;;;5.72;4.38;;;22.70;75.10;;;;;;5210727;28;20358;-46
2021/09/27 00:42:27;;;;;;;7.47;5.35;;;22.70;75.10;;;;;;5202731;28;20049;-45
2021/09/27 00:44:59;;;;;;;5.63;4.73;;;22.70;75.10;;;;;;5192133;28;20078;-49
2021/09/27 00:47:32;;;;;;;7.32;5.38;;;22.70;75.10;;;;;;5211452;28;20056;-50
2021/09/27 00:50:10;;;;;;;9.50;5.75;;;22.60;75.00;;;;;;5209967;28;20044;-46
2021/09/27 00:52:43;;;;;;;7.07;5.45;;;22.70;75.10;;;;;;5209375;28;20048;-47
2021/09/27 00:55:19;;;;;;;8.13;5.85;;;22.60;75.10;;;;;;5208023;28;20068;-51
2021/09/27 00:57:53;;;;;;;7.57;5.63;;;22.60;75.10;;;;;;5208078;28;20053;-46
2021/09/27 01:00:27;;;;;;;7.10;5.07;;;22.60;75.20;;;;;;5206515;28;20088;-45
2021/09/27 01:03:00;;;;;;;9.90;5.50;;;22.60;75.10;;;;;;5207802;28;20056;-49
2021/09/27 01:05:36;;;;;;;8.10;5.32;;;22.70;75.20;;;;;;5209659;28;20044;-48
2021/09/27 01:08:38;;;;;;;10.02;5.53;;;22.60;75.10;;;;;;5201178;28;20560;-46
2021/09/27 01:11:18;;;;;;;7.10;5.75;;;22.60;75.10;;;;;;5205164;28;20052;-47
2021/09/27 01:14:15;;;;;;;5.85;5.20;;;22.60;75.00;;;;;;5206518;28;20493;-51
2021/09/27 01:17:01;;;;;;;8.23;5.07;;;22.60;75.00;;;;;;5206074;28;20053;-48
2021/09/27 01:19:51;;;;;;;7.68;5.97;;;22.60;75.10;;;;;;5208170;28;20048;-47
2021/09/27 01:22:52;;;;;;;7.57;5.32;;;22.60;75.00;;;;;;5194409;28;20049;-46
2021/09/27 01:25:28;;;;;;;11.85;5.40;;;22.60;75.00;;;;;;5207998;28;20047;-46
2021/09/27 01:28:03;;;;;;;8.07;5.85;;;22.60;75.10;;;;;;5208484;28;20402;-45
2021/09/27 01:30:38;;;;;;;8.02;6.03;;;22.60;75.10;;;;;;5206095;28;20048;-48
2021/09/27 01:33:22;;;;;;;10.32;5.82;;;22.60;75.70;;;;;;5205271;28;20053;-45
2021/09/27 01:36:01;;;;;;;7.68;5.57;;;22.60;75.00;;;;;;5204145;28;20409;-45
2021/09/27 01:39:00;;;;;;;6.95;5.80;;;22.60;75.00;;;;;;5204907;28;20520;-50
2021/09/27 01:42:01;;;;;;;7.95;6.00;;;22.60;75.00;;;;;;5206324;28;20041;-49
2021/09/27 01:44:42;;;;;;;6.70;5.50;;;22.60;75.00;;;;;;5206616;28;20060;-50
2021/09/27 01:47:24;;;;;;;7.00;5.93;;;22.60;75.00;;;;;;5204152;28;20045;-46
2021/09/27 01:50:21;;;;;;;7.55;6.28;;;22.60;75.00;;;;;;5204976;28;20053;-47
2021/09/27 01:52:59;;;;;;;10.35;5.90;;;22.60;75.00;;;;;;5207950;28;20505;-45
2021/09/27 01:55:37;;;;;;;6.55;5.80;;;22.60;75.00;;;;;;5205130;28;20057;-53
2021/09/27 01:58:48;;;;;;;8.38;5.65;;;22.60;75.00;;;;;;5207353;28;21192;-52
2021/09/27 02:01:24;;;;;;;8.75;6.05;;;22.60;75.00;;;;;;5193833;28;20060;-49
2021/09/27 02:04:10;;;;;;;8.02;5.60;;;22.60;75.10;;;;;;5206868;28;20520;-47
2021/09/27 02:06:49;;;;;;;6.85;5.57;;;22.60;75.10;;;;;;5208131;28;20620;-45
2021/09/27 02:09:33;;;;;;;7.78;5.93;;;22.60;75.00;;;;;;5210080;28;20512;-46
2021/09/27 02:12:11;;;;;;;7.35;6.22;;;22.60;75.00;;;;;;5209259;28;20049;-45
2021/09/27 02:14:54;;;;;;;9.02;6.22;;;22.60;75.00;;;;;;5210486;28;20064;-45
2021/09/27 02:17:49;;;;;;;8.02;6.15;;;22.60;75.00;;;;;;5211241;28;20113;-48
2021/09/27 02:20:33;;;;;;;8.43;5.78;;;22.50;74.90;;;;;;5188329;28;20313;-51
2021/09/27 02:23:24;;;;;;;8.85;6.75;;;22.60;74.90;;;;;;5197628;28;20048;-54
2021/09/27 02:25:57;;;;;;;8.77;6.80;;;22.60;75.00;;;;;;5190215;28;20036;-46
2021/09/27 02:28:30;;;;;;;8.07;6.53;;;22.60;75.00;;;;;;5184496;28;20061;-51
2021/09/27 02:31:38;;;;;;;9.38;6.40;;;22.50;74.90;;;;;;5207939;28;21000;-51
2021/09/27 02:34:28;;;;;;;7.70;6.30;;;22.50;74.90;;;;;;5102649;28;20051;-46
2021/09/27 02:37:07;;;;;;;10.48;5.95;;;22.50;74.90;;;;;;5202226;28;20040;-52
2021/09/27 02:39:56;;;;;;;7.38;6.55;;;22.50;75.00;;;;;;5184761;28;20375;-50
2021/09/27 02:42:34;;;;;;;9.43;6.00;;;22.50;74.90;;;;;;5207552;28;20041;-48
2021/09/27 02:45:08;;;;;;;8.77;6.00;;;22.50;74.90;;;;;;5207989;28;20045;-46
2021/09/27 02:47:46;;;;;;;8.60;6.35;;;22.50;74.90;;;;;;5204443;28;20041;-48
2021/09/27 02:50:27;;;;;;;8.23;6.05;;;22.50;75.50;;;;;;5207067;28;20042;-46
2021/09/27 02:53:00;;;;;;;10.20;5.93;;;22.50;74.90;;;;;;5207167;28;20049;-46
2021/09/27 02:55:50;;;;;;;7.82;6.38;;;22.50;74.90;;;;;;5205814;28;20067;-47
2021/09/27 02:58:47;;;;;;;7.50;6.30;;;22.50;74.80;;;;;;5206686;28;20576;-50
2021/09/27 03:01:42;;;;;;;8.68;5.72;;;22.50;74.70;;;;;;5187711;28;20076;-48
2021/09/27 03:04:56;;;;;;;8.13;6.05;;;22.50;75.40;;;;;;5205622;28;20052;-49
2021/09/27 03:07:38;;;;;;;7.50;5.68;;;22.50;74.60;;;;;;5184245;28;20044;-46
2021/09/27 03:11:07;;;;;;;8.98;6.18;;;22.50;74.70;;;;;;5206082;28;21516;-45
2021/09/27 03:14:17;;;;;;;9.07;6.40;;;22.50;74.60;;;;;;5124359;28;20062;-47
2021/09/27 03:17:07;;;;;;;7.68;5.63;;;22.50;74.60;;;;;;5140979;28;20065;-48
2021/09/27 03:20:02;;;;;;;8.13;5.65;;;22.50;74.60;;;;;;5203183;28;20053;-48
2021/09/27 03:22:42;;;;;;;9.23;5.60;;;22.50;74.70;;;;;;5173416;28;20489;-46
2021/09/27 03:25:27;;;;;;;9.50;5.93;;;22.50;74.70;;;;;;5202017;28;20049;-48
2021/09/27 03:28:37;;;;;;;10.63;5.72;;;22.50;74.70;;;;;;5202486;28;20618;-47
2021/09/27 03:31:35;;;;;;;9.88;5.75;;;22.50;74.50;;;;;;5132657;28;20052;-56
2021/09/27 03:34:13;;;;;;;7.63;5.60;;;22.60;74.60;;;;;;5205710;28;20045;-46
2021/09/27 03:37:13;;;;;;;9.15;5.93;;;22.50;74.60;;;;;;5205661;28;20126;-46
2021/09/27 03:40:17;;;;;;;8.35;5.85;;;22.60;74.60;;;;;;5207823;28;20494;-50
2021/09/27 03:43:19;;;;;;;8.30;5.60;;;22.60;74.60;;;;;;5208419;28;20520;-46
2021/09/27 03:46:00;;;;;;;8.25;5.32;;;22.50;74.50;;;;;;5193030;28;20052;-49
2021/09/27 03:48:59;;;;;;;9.88;6.20;;;22.60;74.60;;;;;;5206782;28;20053;-49
2021/09/27 03:51:43;;;;;;;9.65;5.93;;;22.60;74.60;;;;;;5193769;28;20293;-53
2021/09/27 03:54:58;;;;;;;8.70;5.70;;;22.60;74.60;;;;;;5202147;28;20129;-51
2021/09/27 03:57:49;;;;;;;8.43;5.75;;;22.60;74.60;;;;;;5179398;28;20051;-44
2021/09/27 04:00:41;;;;;;;7.00;5.70;;;22.60;74.60;;;;;;5204919;28;20550;-48
2021/09/27 04:03:53;;;;;;;8.93;5.45;;;22.60;74.60;;;;;;5204942;28;20049;-51
2021/09/27 04:06:51;;;;;;;8.02;5.93;;;22.60;74.50;;;;;;5183253;28;20041;-46
2021/09/27 04:09:36;;;;;;;8.77;5.07;;;22.60;74.50;;;;;;5202968;28;20060;-50
2021/09/27 04:12:17;;;;;;;8.63;5.38;;;22.60;74.60;;;;;;5190285;28;20041;-48
2021/09/27 04:14:49;;;;;;;8.05;5.60;;;22.60;74.60;;;;;;5204653;28;20053;-49
2021/09/27 04:17:44;;;;;;;8.57;5.80;;;22.60;74.60;;;;;;5206045;28;20048;-45
2021/09/27 04:20:26;;;;;;;11.27;6.13;;;22.60;74.70;;;;;;5190152;28;20072;-46
2021/09/27 04:23:13;;;;;;;9.35;5.97;;;22.60;74.60;;;;;;5203811;28;20500;-47
2021/09/27 04:26:07;;;;;;;9.73;5.10;;;22.60;74.90;;;;;;5191707;28;20061;-48
2021/09/27 04:28:57;;;;;;;10.77;5.95;;;22.70;74.90;;;;;;5199893;28;20048;-46
2021/09/27 04:31:48;;;;;;;10.43;5.50;;;22.60;74.70;;;;;;5199584;28;20056;-51
2021/09/27 04:34:36;;;;;;;6.88;5.55;;;22.60;74.70;;;;;;5205669;28;20049;-48
2021/09/27 04:37:09;;;;;;;9.15;5.68;;;22.70;75.00;;;;;;5202860;28;20049;-48
2021/09/27 04:39:41;;;;;;;16.02;6.45;;;22.70;75.00;;;;;;5206898;28;20064;-47
2021/09/27 04:42:39;;;;;;;10.13;5.23;;;22.70;75.00;;;;;;5208293;28;20049;-50
2021/09/27 04:45:35;;;;;;;9.85;5.47;;;22.70;75.00;;;;;;5205531;28;20413;-45
2021/09/27 04:48:27;;;;;;;7.38;5.22;;;22.70;75.00;;;;;;5207504;28;20691;-45
2021/09/27 04:51:09;;;;;;;7.35;5.47;;;22.60;75.00;;;;;;5207346;28;20057;-51
2021/09/27 04:54:06;;;;;;;8.52;5.15;;;22.70;75.00;;;;;;5200598;28;20048;-47
2021/09/27 04:57:07;;;;;;;12.75;5.38;;;22.70;75.00;;;;;;5196477;28;20773;-45
2021/09/27 04:59:47;;;;;;;12.45;6.03;;;22.70;75.30;;;;;;5191450;28;20061;-46
2021/09/27 05:02:38;;;;;;;24.35;6.38;;;22.70;75.30;;;;;;5191007;28;20045;-46
2021/09/27 05:05:25;;;;;;;23.63;6.20;;;22.60;75.60;;;;;;5186984;28;20622;-45
2021/09/27 05:08:26;;;;;;;19.40;6.60;;;22.70;75.50;;;;;;5203957;28;20128;-50
2021/09/27 05:11:18;;;;;;;15.10;6.28;;;22.70;75.50;;;;;;5193501;28;20481;-51
2021/09/27 05:14:17;;;;;;;13.73;6.47;;;22.70;75.40;;;;;;5183084;28;20545;-47
2021/09/27 05:16:59;;;;;;;19.08;5.70;;;22.70;75.20;;;;;;5170909;28;20041;-54
2021/09/27 05:19:58;;;;;;;17.20;6.47;;;22.70;75.30;;;;;;5191191;28;20040;-47
2021/09/27 05:22:59;;;;;;;19.85;6.30;;;22.70;75.10;;;;;;5195440;28;20633;-48
2021/09/27 05:25:59;;;;;;;11.75;5.57;;;22.70;75.10;;;;;;5190864;28;20053;-55
2021/09/27 05:28:45;;;;;;;20.27;6.53;;;22.70;75.10;;;;;;5188101;28;20045;-47
2021/09/27 05:31:46;;;;;;;24.83;7.00;;;22.70;75.10;;;;;;5189988;28;20049;-47
2021/09/27 05:34:32;;;;;;;13.15;5.68;;;22.70;75.00;;;;;;5187641;28;20056;-52
2021/09/27 05:37:16;;;;;;;15.65;5.50;;;22.70;75.00;;;;;;5190740;28;20057;-49
2021/09/27 05:40:02;;;;;;;12.20;5.32;;;22.70;74.90;;;;;;5188846;28;20068;-49
2021/09/27 05:43:07;;;;;;;10.20;5.40;;;22.70;74.80;;;;;;5180327;28;20677;-49
2021/09/27 05:45:57;;;;;;;11.45;5.53;;;22.70;74.70;;;;;;5174731;28;20045;-49
2021/09/27 05:48:35;;;;;;;10.80;5.57;;;22.70;74.70;;;;;;5190656;28;20401;-46
2021/09/27 05:51:20;;;;;;;13.48;5.43;;;22.70;74.70;;;;;;5186252;28;20049;-49
2021/09/27 05:54:17;;;;;;;12.43;5.40;;;22.70;74.60;;;;;;5158626;28;20045;-51
2021/09/27 05:57:03;;;;;;;15.07;5.63;;;22.70;74.50;;;;;;5188609;28;20057;-51
2021/09/27 06:00:02;;;;;;;9.93;5.35;;;22.70;74.60;;;;;;5169252;28;20045;-46
2021/09/27 06:03:06;;;;;;;10.98;5.75;;;22.70;74.50;;;;;;5199924;28;20052;-45
2021/09/27 06:06:05;;;;;;;10.90;5.00;;;22.70;74.50;;;;;;5198513;28;20052;-47
2021/09/27 06:08:59;;;;;;;9.73;5.22;;;22.70;74.50;;;;;;5176185;28;20473;-51
2021/09/27 06:11:46;;;;;;;;;;;22.70;74.90;;;;;;5201089;28;20049;-50
2021/09/27 06:14:19;;;;;;;13.93;5.53;;;22.60;74.50;;;;;;5200042;28;20426;-49
2021/09/27 06:16:54;;;;;;;12.02;5.53;;;22.60;74.50;;;;;;5200950;28;20080;-47
2021/09/27 06:20:05;;;;;;;14.75;5.20;;;22.70;74.50;;;;;;5202971;28;20497;-47
2021/09/27 06:22:59;;;;;;;8.00;4.80;;;22.60;74.30;;;;;;5199898;28;20048;-44
2021/09/27 06:25:38;;;;;;;;;;;22.60;74.40;;;;;;5200017;28;20045;-46
2021/09/27 06:28:34;;;;;;;11.02;5.05;;;22.60;74.40;;;;;;5200017;28;19928;-48
2021/09/27 06:31:16;;;;;;;7.43;4.70;;;22.70;74.40;;;;;;5199367;28;20053;-51
2021/09/27 06:34:09;;;;;;;8.75;4.88;;;22.70;74.40;;;;;;5201452;28;20053;-47
2021/09/27 06:36:43;;;;;;;7.57;4.50;;;22.70;74.30;;;;;;5200571;28;20056;-48
2021/09/27 06:39:17;;;;;;;;;;;22.70;74.30;;;;;;5186013;28;20052;-50
2021/09/27 06:41:51;;;;;;;6.82;4.63;;;22.60;74.20;;;;;;5206867;28;19925;-48
2021/09/27 06:44:24;;;;;;;6.50;4.50;;;22.60;74.30;;;;;;5200749;28;20045;-47
2021/09/27 06:46:57;;;;;;;7.80;5.30;;;22.70;74.30;;;;;;5182925;28;20041;-49
2021/09/27 06:49:29;;;;;;;9.50;4.63;;;22.70;74.20;;;;;;5199734;28;20044;-49
2021/09/27 06:52:02;;;;;;;7.70;4.50;;;22.70;74.20;;;;;;5193915;28;20045;-46
2021/09/27 06:54:34;;;;;;;10.73;4.55;;;22.70;74.10;;;;;;5193710;28;20528;-45
2021/09/27 06:57:07;;;;;;;5.70;4.20;;;22.70;74.10;;;;;;5204705;28;20049;-46
2021/09/27 06:59:39;;;;;;;5.35;4.50;;;22.70;74.10;;;;;;5206295;28;20056;-45
2021/09/27 07:02:21;;;;;;;11.05;4.97;;;22.70;74.00;;;;;;5190251;28;20049;-47
2021/09/27 07:04:54;;;;;;;7.13;5.32;;;22.70;74.00;;;;;;5200951;28;20142;-46
2021/09/27 07:07:26;;;;;;;9.27;4.65;;;22.70;74.00;;;;;;5206181;28;20048;-47
2021/09/27 07:09:58;;;;;;;6.00;4.35;;;22.70;74.00;;;;;;5204412;28;20053;-46
2021/09/27 07:12:31;;;;;;;6.28;4.40;;;22.70;73.90;;;;;;5197653;28;20045;-53
2021/09/27 07:15:04;;;;;;;7.55;4.65;;;22.70;73.90;;;;;;5182649;28;20059;-50
2021/09/27 07:17:39;;;;;;;8.93;4.50;;;22.70;73.90;;;;;;5197609;28;20360;-52
2021/09/27 07:20:15;;;;;;;6.20;4.55;;;22.70;73.80;;;;;;5196402;28;20060;-49
2021/09/27 07:22:49;;;;;;;6.30;4.38;;;22.70;73.80;;;;;;5198889;28;20041;-47
2021/09/27 07:25:22;;;;;;;5.85;4.20;;;22.80;73.80;;;;;;5193097;28;20513;-48
2021/09/27 07:27:55;;;;;;;6.28;4.45;;;22.70;73.70;;;;;;5186867;28;20163;-45
2021/09/27 07:30:29;;;;;;;5.20;4.30;;;22.80;73.80;;;;;;5202575;28;20440;-48
2021/09/27 07:33:03;;;;;;;6.25;4.22;;;22.70;73.70;;;;;;5181909;28;20789;-47
2021/09/27 07:35:35;;;;;;;;;;;22.70;73.70;;;;;;5197036;28;20064;-45
2021/09/27 07:38:07;;;;;;;6.60;4.07;;;22.70;73.70;;;;;;5200307;28;20529;-45
2021/09/27 07:40:40;;;;;;;8.57;4.57;;;22.70;73.80;;;;;;5195687;28;20053;-45
2021/09/27 07:43:12;;;;;;;8.20;4.75;;;22.80;73.80;;;;;;5194413;28;20055;-48
2021/09/27 07:45:45;;;;;;;4.90;4.10;;;22.70;73.70;;;;;;5190224;28;20056;-47
2021/09/27 07:48:18;;;;;;;5.30;4.35;;;22.80;73.80;;;;;;5177376;28;20049;-54
2021/09/27 07:50:54;;;;;;;5.87;4.30;;;22.70;73.70;;;;;;5183568;28;20033;-46
2021/09/27 07:53:27;;;;;;;6.75;4.25;;;22.80;73.70;;;;;;5196178;28;20417;-50
2021/09/27 07:56:00;;;;;;;;;;;22.80;73.70;;;;;;5180060;28;20060;-45
2021/09/27 07:58:32;;;;;;;6.60;4.20;;;22.70;73.70;;;;;;5201430;28;19928;-47
2021/09/27 08:01:04;;;;;;;6.00;3.97;;;22.70;73.80;;;;;;5203833;28;20060;-52
2021/09/27 08:03:37;;;;;;;5.38;3.95;;;22.80;73.80;;;;;;5203493;28;20058;-46
2021/09/27 08:06:28;;;;;;;4.57;3.90;;;22.80;73.70;;;;;;5197686;28;20060;-47
2021/09/27 08:09:00;;;;;;;5.22;4.43;;;22.80;73.70;;;;;;5198907;28;20055;-44
2021/09/27 08:11:33;;;;;;;5.10;4.10;;;22.80;73.70;;;;;;5206053;28;20049;-48
2021/09/27 08:14:06;;;;;;;8.47;4.70;;;22.80;73.70;;;;;;5201870;28;20054;-51
2021/09/27 08:16:39;;;;;;;4.95;4.30;;;22.80;73.70;;;;;;5201793;28;20057;-47
2021/09/27 08:19:11;;;;;;;5.75;4.75;;;22.80;73.70;;;;;;5198847;28;20049;-46
2021/09/27 08:21:44;;;;;;;7.53;4.63;;;22.80;73.70;;;;;;5203087;28;20545;-49
2021/09/27 08:24:17;;;;;;;5.60;4.40;;;22.80;73.70;;;;;;5195389;28;20501;-49
2021/09/27 08:26:49;;;;;;;7.40;4.65;;;22.80;73.70;;;;;;5167706;28;20520;-45
2021/09/27 08:29:22;;;;;;;5.22;4.53;;;22.80;73.70;;;;;;5192894;28;20746;-48
2021/09/27 08:31:55;;;;;;;8.68;5.40;;;22.80;73.70;;;;;;5172569;28;20056;-49
2021/09/27 08:34:27;;;;;;;7.90;4.93;;;22.80;73.70;;;;;;5191748;28;20075;-51
2021/09/27 08:37:01;;;;;;;8.05;4.72;;;22.80;73.70;;;;;;5193183;28;20517;-49
2021/09/27 08:39:33;;;;;;;6.20;4.65;;;22.80;73.70;;;;;;5173691;28;20590;-48
2021/09/27 08:42:13;;;;;;;7.90;5.05;;;22.80;73.70;;;;;;5200912;28;20863;-45
2021/09/27 08:44:50;;;;;;;6.05;4.72;;;22.80;73.60;;;;;;5194387;28;20051;-48
2021/09/27 08:47:35;;;;;;;6.32;5.25;;;22.80;73.90;;;;;;5197341;28;20053;-48
2021/09/27 08:50:11;;;;;;;8.35;5.22;;;22.80;73.60;;;;;;5195703;28;20064;-45
2021/09/27 08:52:44;;;;;;;9.80;5.15;;;22.80;73.70;;;;;;5184135;28;20060;-53
2021/09/27 08:55:17;;;;;;;9.52;5.10;;;22.80;73.70;;;;;;5194479;28;20049;-44
2021/09/27 08:58:04;;;;;;;10.18;6.03;;;22.80;73.60;;;;;;5186162;28;20053;-51
2021/09/27 09:00:54;;;;;;;9.80;5.63;;;22.80;73.60;;;;;;5183540;28;20055;-54
2021/09/27 09:03:46;;;;;;;9.13;5.38;;;22.80;73.60;;;;;;5178941;28;20040;-47
2021/09/27 09:06:40;;;;;;;6.93;5.28;;;22.80;73.60;;;;;;5202693;28;20051;-53
2021/09/27 09:09:17;;;;;;;9.30;5.45;;;22.80;73.60;;;;;;5223461;28;20395;-47
2021/09/27 09:11:54;;;;;;;9.00;5.60;;;22.80;73.70;;;;;;5218191;28;20052;-47
2021/09/27 09:14:43;;;;;;;11.30;6.03;;;22.80;73.70;;;;;;4506233;28;10000319;-45
2021/09/27 09:17:22;;;;;;;8.60;5.68;;;22.90;73.70;;;;;;5215222;28;20052;-49
2021/09/27 09:19:54;;;;;;;7.93;5.55;;;22.90;73.80;;;;;;5218620;28;20044;-50
2021/09/27 09:22:37;;;;;;;8.50;6.10;;;22.80;73.70;;;;;;5215875;28;20045;-47
2021/09/27 09:25:29;;;;;;;7.88;5.38;;;22.90;73.70;;;;;;5221716;28;20047;-50
2021/09/27 09:28:06;;;;;;;10.18;5.80;;;22.90;73.70;;;;;;5215557;28;20048;-46
2021/09/27 09:30:46;;;;;;;9.30;5.55;;;22.90;73.80;;;;;;5214189;28;20588;-46
2021/09/27 09:33:49;;;;;;;9.65;5.57;;;22.90;73.80;;;;;;5219664;28;20052;-45
2021/09/27 09:36:40;;;;;;;8.45;5.90;;;22.90;73.70;;;;;;5213079;28;20048;-45
2021/09/27 09:39:22;;;;;;;7.68;5.50;;;22.90;73.80;;;;;;5201247;28;20060;-46
2021/09/27 09:41:57;;;;;;;11.05;6.20;;;22.90;73.90;;;;;;5217934;28;20052;-48
2021/09/27 09:44:40;;;;;;;10.73;5.97;;;22.90;73.90;;;;;;5220126;28;20048;-46
2021/09/27 09:47:21;;;;;;;9.97;6.17;;;22.90;74.00;;;;;;5220734;28;20052;-50
2021/09/27 09:50:22;;;;;;;8.70;6.43;;;22.90;74.10;;;;;;5218171;28;20040;-55
2021/09/27 09:52:58;;;;;;;8.30;6.05;;;22.90;74.10;;;;;;5215030;28;20527;-47
2021/09/27 09:55:42;;;;;;;8.38;5.90;;;22.90;74.20;;;;;;5217983;28;21298;-45
2021/09/27 09:58:38;;;;;;;8.55;6.13;;;22.90;74.30;;;;;;5223643;28;20074;-50
2021/09/27 10:01:25;;;;;;;8.52;6.10;;;22.90;74.20;;;;;;5207603;28;20059;-47
2021/09/27 10:04:10;;;;;;;10.05;5.60;;;22.90;74.30;;;;;;5219164;28;20055;-47
2021/09/27 10:06:47;;;;;;;8.13;5.80;;;22.90;74.30;;;;;;5194891;28;20499;-49
2021/09/27 10:09:37;;;;;;;7.20;6.00;;;22.90;74.40;;;;;;5213404;28;20052;-50
2021/09/27 10:12:34;;;;;;;10.07;6.40;;;22.90;74.40;;;;;;5204574;28;20037;-48
2021/09/27 10:15:08;;;;;;;12.48;6.50;;;22.90;74.40;;;;;;5210296;28;20045;-55
2021/09/27 10:17:41;;;;;;;12.55;6.53;;;22.90;74.40;;;;;;5202485;28;20044;-51
2021/09/27 10:20:30;;;;;;;9.65;6.03;;;23.00;74.40;;;;;;5216777;28;20583;-45
2021/09/27 10:23:11;;;;;;;9.57;6.65;;;23.00;74.40;;;;;;5206523;28;20603;-49
2021/09/27 10:25:48;;;;;;;9.52;6.32;;;23.00;74.30;;;;;;5223356;28;20386;-46
2021/09/27 10:28:21;;;;;;;10.05;6.05;;;23.00;74.30;;;;;;5218595;28;20043;-46
2021/09/27 10:30:57;;;;;;;11.52;6.20;;;23.00;74.30;;;;;;5213059;28;20063;-46
2021/09/27 10:33:35;;;;;;;11.60;7.05;;;23.00;74.30;;;;;;5222311;28;20476;-52
2021/09/27 10:36:20;;;;;;;10.23;6.40;;;23.00;74.30;;;;;;5211875;28;20063;-48
2021/09/27 10:38:58;;;;;;;9.63;6.90;;;23.00;74.30;;;;;;5209940;28;20052;-50
2021/09/27 10:41:50;;;;;;;10.60;6.35;;;23.00;74.30;;;;;;5203836;28;20049;-49
2021/09/27 10:44:32;;;;;;;11.80;6.32;;;23.00;74.30;;;;;;5211814;28;20517;-48
2021/09/27 10:47:18;;;;;;;11.88;6.95;;;23.00;74.30;;;;;;5220629;28;20033;-50
2021/09/27 10:49:59;;;;;;;9.88;6.25;;;23.10;74.30;;;;;;5218614;28;20531;-48
2021/09/27 10:52:46;;;;;;;11.52;5.88;;;23.10;74.30;;;;;;5218535;28;20055;-50
2021/09/27 10:55:19;;;;;;;12.05;6.90;;;23.10;74.20;;;;;;5223391;28;20041;-50
2021/09/27 10:58:01;;;;;;;10.07;6.25;;;23.10;74.10;;;;;;5223464;28;20048;-51
2021/09/27 11:00:39;;;;;;;10.38;6.40;;;23.20;74.10;;;;;;5219825;28;20036;-50
2021/09/27 11:03:11;;;;;;;8.98;5.85;;;23.10;74.00;;;;;;5220235;28;20041;-48
2021/09/27 11:05:57;;;;;;;7.88;5.47;;;23.20;74.00;;;;;;5220964;28;20036;-46
2021/09/27 11:08:44;;;;;;;9.35;6.13;;;23.20;73.80;;;;;;5218735;28;20049;-51
2021/09/27 11:11:44;;;;;;;8.80;5.47;;;23.20;73.70;;;;;;5215595;28;20048;-49
2021/09/27 11:14:40;;;;;;;10.77;5.78;;;23.30;73.70;;;;;;5204454;28;20045;-49
2021/09/27 11:17:33;;;;;;;9.02;6.20;;;23.20;73.60;;;;;;5190376;28;20057;-51
2021/09/27 11:20:43;;;;;;;8.32;5.55;;;23.20;73.60;;;;;;5207582;28;21071;-52
2021/09/27 11:23:33;;;;;;;9.38;5.15;;;23.20;73.60;;;;;;5211907;28;21147;-51
2021/09/27 11:26:19;;;;;;;7.45;5.38;;;23.20;73.60;;;;;;5203398;28;20044;-51
2021/09/27 11:29:00;;;;;;;10.30;6.00;;;23.30;73.60;;;;;;5192054;28;20048;-48
2021/09/27 11:31:38;;;;;;;7.43;5.57;;;23.30;73.60;;;;;;5208974;28;20055;-49
2021/09/27 11:34:42;;;;;;;7.00;5.22;;;23.30;73.50;;;;;;5203390;28;27120;-47
2021/09/27 11:37:23;;;;;;;10.10;5.80;;;23.40;73.40;;;;;;5204819;28;20693;-54
2021/09/27 11:40:01;;;;;;;9.73;6.05;;;23.40;73.40;;;;;;5186707;28;20052;-55
2021/09/27 11:42:56;;;;;;;9.27;5.80;;;23.40;73.30;;;;;;5210462;28;20044;-51
2021/09/27 11:45:37;;;;;;;11.13;5.63;;;23.50;73.20;;;;;;5147653;28;20056;-53
2021/09/27 11:48:17;;;;;;;8.90;5.90;;;23.50;73.20;;;;;;5192052;28;20048;-49
2021/09/27 11:51:22;;;;;;;11.25;5.30;;;23.60;73.20;;;;;;5203912;28;20049;-49
2021/09/27 11:53:54;;;;;;;;;;;23.60;73.10;;;;;;5183817;28;20416;-51
2021/09/27 11:56:47;;;;;;;11.00;5.40;;;23.60;73.10;;;;;;5209583;28;19928;-51
2021/09/27 11:59:36;;;;;;;10.95;5.90;;;23.60;73.30;;;;;;5211897;28;20416;-57
2021/09/27 12:02:29;;;;;;;7.68;5.72;;;23.70;73.40;;;;;;5213792;28;20052;-50
2021/09/27 12:05:12;;;;;;;9.98;5.30;;;23.70;73.40;;;;;;5211791;28;20119;-47
2021/09/27 12:08:11;;;;;;;7.03;5.75;;;23.80;73.40;;;;;;5211866;28;20767;-54
2021/09/27 12:10:48;;;;;;;11.05;5.47;;;23.80;73.30;;;;;;5200901;28;20382;-53
2021/09/27 12:13:25;;;;;;;13.57;5.43;;;23.80;73.40;;;;;;5198530;28;20052;-53
2021/09/27 12:16:01;;;;;;;15.00;6.43;;;23.80;73.20;;;;;;5190726;28;20059;-50
2021/09/27 12:18:52;;;;;;;13.85;6.30;;;23.90;73.30;;;;;;5197631;28;20063;-53
2021/09/27 12:21:40;;;;;;;19.25;6.68;;;23.90;72.90;;;;;;5201644;28;20052;-50
2021/09/27 12:24:19;;;;;;;13.07;6.90;;;23.90;72.00;;;;;;5201227;28;21667;-51
2021/09/27 12:27:14;;;;;;;14.25;7.05;;;24.00;71.50;;;;;;5196018;28;20040;-54
2021/09/27 12:29:56;;;;;;;14.30;7.40;;;24.00;71.90;;;;;;5181277;28;20428;-46
2021/09/27 12:32:36;;;;;;;16.80;7.18;;;24.10;71.50;;;;;;5198861;28;20432;-47
2021/09/27 12:35:18;;;;;;;18.17;7.25;;;24.10;70.60;;;;;;5199745;28;20048;-48
2021/09/27 12:37:53;;;;;;;13.70;8.20;;;24.10;70.10;;;;;;5198784;28;20048;-47
2021/09/27 12:41:07;;;;;;;12.88;8.38;;;24.10;69.70;;;;;;4864720;27;9999812;-46
2021/09/27 12:43:39;;;;;;;22.55;8.82;;;24.20;70.30;;;;;;5189835;28;20037;-45
2021/09/27 12:46:27;;;;;;;15.43;8.43;;;24.20;70.10;;;;;;5185889;28;20422;-48
2021/09/27 12:49:02;;;;;;;15.10;8.45;;;24.20;70.20;;;;;;5184620;28;20049;-45
2021/09/27 12:51:44;;;;;;;19.50;8.70;;;24.20;70.20;;;;;;5160383;28;20855;-55
2021/09/27 12:54:27;;;;;;;12.35;7.68;;;24.20;70.40;;;;;;5171563;28;20064;-48
2021/09/27 12:57:05;;;;;;;12.25;7.15;;;24.30;71.00;;;;;;5177274;28;20360;-48
2021/09/27 12:59:37;;;;;;;17.60;7.80;;;24.30;71.10;;;;;;5166274;28;20053;-46
2021/09/27 13:02:13;;;;;;;23.80;7.63;;;24.40;71.20;;;;;;5175129;28;20060;-57
2021/09/27 13:05:13;;;;;;;18.63;8.65;;;24.40;71.10;;;;;;5153699;28;20045;-55
2021/09/27 13:07:49;;;;;;;15.32;7.93;;;24.40;71.10;;;;;;5174815;28;20517;-51
2021/09/27 13:10:50;;;;;;;17.17;7.72;;;24.50;71.10;;;;;;5173157;28;20045;-49
2021/09/27 13:13:32;;;;;;;18.33;7.55;;;24.50;71.10;;;;;;5168040;28;20128;-49
2021/09/27 13:16:10;;;;;;;21.58;7.88;;;24.60;71.10;;;;;;5167445;28;20602;-47
2021/09/27 13:18:46;;;;;;;15.75;7.45;;;24.60;70.80;;;;;;5175264;28;20263;-48
2021/09/27 13:21:18;;;;;;;16.83;7.65;;;24.70;70.90;;;;;;5174723;28;20045;-54
2021/09/27 13:24:01;;;;;;;16.25;7.60;;;24.70;70.80;;;;;;5176953;28;20076;-52
2021/09/27 13:26:49;;;;;;;12.70;7.38;;;24.80;71.00;;;;;;5171746;28;20576;-47
2021/09/27 13:29:35;;;;;;;14.23;6.78;;;24.80;70.80;;;;;;5172480;28;20045;-46
2021/09/27 13:32:17;;;;;;;12.95;7.15;;;24.90;70.70;;;;;;5167224;28;20547;-51
2021/09/27 13:34:56;;;;;;;21.88;7.20;;;24.90;70.80;;;;;;5173907;28;20037;-51
2021/09/27 13:37:50;;;;;;;16.55;7.47;;;24.90;70.60;;;;;;5170259;28;20424;-53
2021/09/27 13:40:24;;;;;;;11.40;7.15;;;25.00;70.60;;;;;;5171654;28;20045;-49
2021/09/27 13:43:03;;;;;;;11.77;7.10;;;25.00;70.60;;;;;;5171921;28;20058;-46
2021/09/27 13:45:39;;;;;;;12.13;7.50;;;25.10;70.50;;;;;;5173700;28;20674;-50
2021/09/27 13:48:12;;;;;;;13.52;7.00;;;25.10;70.50;;;;;;5167451;28;20053;-54
2021/09/27 13:50:46;;;;;;;13.77;7.40;;;25.10;70.40;;;;;;5170325;28;20513;-52
2021/09/27 13:53:38;;;;;;;10.57;6.88;;;25.10;70.30;;;;;;5160260;28;20045;-53
2021/09/27 13:56:14;;;;;;;16.05;7.07;;;25.10;70.30;;;;;;5160041;28;20053;-50
2021/09/27 13:58:47;;;;;;;12.27;8.15;;;25.20;70.30;;;;;;5127116;28;20619;-50
2021/09/27 14:01:20;;;;;;;14.95;6.93;;;25.20;70.20;;;;;;5139079;28;20052;-52
2021/09/27 14:03:53;;;;;;;;;;;25.20;70.10;;;;;;5149596;28;20520;-53
2021/09/27 14:06:27;;;;;;;14.77;7.15;;;25.20;70.00;;;;;;5139570;28;19931;-54
2021/09/27 14:09:00;;;;;;;12.70;6.75;;;25.20;70.10;;;;;;5150382;28;20049;-49